sensor_id;sensor_type;location;lat;lon;timestamp;pressure;altitude;pressure_sealevel;temperature;humidity
38812;BME280;24553;51.640;-0.752;2022-11-25T00:00:24;99697.44;;;2.33;100.00
38812;BME280;24553;51.640;-0.752;2022-11-25T00:02:49;99696.75;;;2.31;100.00
38812;BME280;24553;51.640;-0.752;2022-11-25T00:05:14;99703.78;;;2.31;100.00
38812;BME280;24553;51.640;-0.752;2022-11-25T00:07:40;99706.56;;;2.29;100.00
38812;BME280;24553;51.640;-0.752;2022-11-25T00:10:06;99705.28;;;2.33;100.00
38812;BME280;24553;51.640;-0.752;2022-11-25T00:12:31;99704.97;;;2.36;100.00
38812;BME280;24553;51.640;-0.752;2022-11-25T00:14:56;99705.63;;;2.38;100.00
38812;BME280;24553;51.640;-0.752;2022-11-25T00:17:22;99710.34;;;2.35;100.00
38812;BME280;24553;51.640;-0.752;2022-11-25T00:19:47;99707.94;;;2.50;100.00
38812;BME280;24553;51.640;-0.752;2022-11-25T00:22:14;99715.47;;;2.45;100.00
38812;BME280;24553;51.640;-0.752;2022-11-25T00:24:39;99721.69;;;2.44;100.00
38812;BME280;24553;51.640;-0.752;2022-11-25T00:27:05;99715.13;;;2.48;100.00
38812;BME280;24553;51.640;-0.752;2022-11-25T00:29:31;99723.50;;;2.51;100.00
38812;BME280;24553;51.640;-0.752;2022-11-25T00:31:56;99725.09;;;2.44;100.00
38812;BME280;24553;51.640;-0.752;2022-11-25T00:34:21;99729.34;;;2.45;100.00
38812;BME280;24553;51.640;-0.752;2022-11-25T00:36:47;99728.00;;;2.33;100.00
38812;BME280;24553;51.640;-0.752;2022-11-25T00:39:14;99733.03;;;2.26;100.00
38812;BME280;24553;51.640;-0.752;2022-11-25T00:41:40;99732.00;;;2.19;100.00
38812;BME280;24553;51.640;-0.752;2022-11-25T00:44:25;99738.91;;;2.20;100.00
38812;BME280;24553;51.640;-0.752;2022-11-25T00:47:21;99755.31;;;2.30;100.00
38812;BME280;24553;51.640;-0.752;2022-11-25T00:49:50;99756.25;;;2.29;100.00
38812;BME280;24553;51.640;-0.752;2022-11-25T00:52:21;99758.69;;;2.23;100.00
38812;BME280;24553;51.640;-0.752;2022-11-25T00:54:47;99763.28;;;2.29;100.00
38812;BME280;24553;51.640;-0.752;2022-11-25T00:57:14;99762.47;;;2.28;100.00
38812;BME280;24553;51.640;-0.752;2022-11-25T00:59:40;99764.00;;;2.39;100.00
38812;BME280;24553;51.640;-0.752;2022-11-25T01:02:06;99760.41;;;2.40;100.00
38812;BME280;24553;51.640;-0.752;2022-11-25T01:04:32;99763.22;;;2.47;100.00
38812;BME280;24553;51.640;-0.752;2022-11-25T01:06:57;99777.41;;;2.70;100.00
38812;BME280;24553;51.640;-0.752;2022-11-25T01:09:24;99779.16;;;3.04;100.00
38812;BME280;24553;51.640;-0.752;2022-11-25T01:11:50;99788.38;;;3.16;100.00
38812;BME280;24553;51.640;-0.752;2022-11-25T01:14:17;99786.22;;;3.12;100.00
38812;BME280;24553;51.640;-0.752;2022-11-25T01:16:42;99787.19;;;3.02;100.00
38812;BME280;24553;51.640;-0.752;2022-11-25T01:19:08;99796.31;;;2.98;100.00
38812;BME280;24553;51.640;-0.752;2022-11-25T01:21:34;99799.25;;;2.87;100.00
38812;BME280;24553;51.640;-0.752;2022-11-25T01:24:01;99806.53;;;2.75;100.00
38812;BME280;24553;51.640;-0.752;2022-11-25T01:26:27;99801.66;;;2.80;100.00
38812;BME280;24553;51.640;-0.752;2022-11-25T01:28:59;99800.63;;;2.73;100.00
38812;BME280;24553;51.640;-0.752;2022-11-25T01:31:27;99816.34;;;2.73;100.00
38812;BME280;24553;51.640;-0.752;2022-11-25T01:33:56;99822.63;;;2.89;100.00
38812;BME280;24553;51.640;-0.752;2022-11-25T01:36:22;99827.69;;;3.24;100.00
38812;BME280;24553;51.640;-0.752;2022-11-25T01:38:53;99832.66;;;3.44;100.00
38812;BME280;24553;51.640;-0.752;2022-11-25T01:41:20;99834.63;;;3.58;100.00
38812;BME280;24553;51.640;-0.752;2022-11-25T01:44:13;99847.59;;;3.76;100.00
38812;BME280;24553;51.640;-0.752;2022-11-25T01:47:17;99839.09;;;3.82;100.00
38812;BME280;24553;51.640;-0.752;2022-11-25T01:49:53;99842.53;;;3.83;100.00
38812;BME280;24553;51.640;-0.752;2022-11-25T01:52:24;99850.41;;;3.91;100.00
38812;BME280;24553;51.640;-0.752;2022-11-25T01:54:53;99852.88;;;3.92;100.00
38812;BME280;24553;51.640;-0.752;2022-11-25T01:57:31;99861.72;;;4.08;100.00
38812;BME280;24553;51.640;-0.752;2022-11-25T02:00:02;99866.31;;;4.14;100.00
38812;BME280;24553;51.640;-0.752;2022-11-25T02:02:28;99871.91;;;4.11;100.00
38812;BME280;24553;51.640;-0.752;2022-11-25T02:04:54;99874.69;;;4.18;100.00
38812;BME280;24553;51.640;-0.752;2022-11-25T02:07:31;99878.13;;;4.34;100.00
38812;BME280;24553;51.640;-0.752;2022-11-25T02:09:59;99890.75;;;4.31;100.00
38812;BME280;24553;51.640;-0.752;2022-11-25T02:12:26;99888.13;;;4.23;100.00
38812;BME280;24553;51.640;-0.752;2022-11-25T02:14:53;99889.94;;;4.22;100.00
38812;BME280;24553;51.640;-0.752;2022-11-25T02:17:20;99889.28;;;4.12;100.00
38812;BME280;24553;51.640;-0.752;2022-11-25T02:20:03;99906.84;;;4.11;100.00
38812;BME280;24553;51.640;-0.752;2022-11-25T02:25:28;99912.72;;;4.38;100.00
38812;BME280;24553;51.640;-0.752;2022-11-25T02:27:57;99915.34;;;4.38;100.00
38812;BME280;24553;51.640;-0.752;2022-11-25T02:30:25;99918.97;;;4.37;100.00
38812;BME280;24553;51.640;-0.752;2022-11-25T02:32:50;99921.94;;;4.42;100.00
38812;BME280;24553;51.640;-0.752;2022-11-25T02:35:26;99931.59;;;4.50;100.00
38812;BME280;24553;51.640;-0.752;2022-11-25T02:37:55;99935.53;;;4.62;100.00
38812;BME280;24553;51.640;-0.752;2022-11-25T02:40:21;99942.56;;;4.62;100.00
38812;BME280;24553;51.640;-0.752;2022-11-25T02:42:49;99933.41;;;4.57;100.00
38812;BME280;24553;51.640;-0.752;2022-11-25T02:45:16;99940.47;;;4.65;100.00
38812;BME280;24553;51.640;-0.752;2022-11-25T02:47:45;99944.25;;;4.63;100.00
38812;BME280;24553;51.640;-0.752;2022-11-25T02:50:11;99943.91;;;4.66;100.00
38812;BME280;24553;51.640;-0.752;2022-11-25T02:52:38;99951.94;;;4.64;100.00
38812;BME280;24553;51.640;-0.752;2022-11-25T02:55:03;99948.13;;;4.75;100.00
38812;BME280;24553;51.640;-0.752;2022-11-25T02:57:29;99957.84;;;4.74;100.00
38812;BME280;24553;51.640;-0.752;2022-11-25T02:59:54;99960.47;;;4.74;100.00
38812;BME280;24553;51.640;-0.752;2022-11-25T03:02:20;99963.56;;;4.70;100.00
38812;BME280;24553;51.640;-0.752;2022-11-25T03:04:45;99976.56;;;4.71;100.00
38812;BME280;24553;51.640;-0.752;2022-11-25T03:07:10;99984.91;;;4.75;100.00
38812;BME280;24553;51.640;-0.752;2022-11-25T03:09:36;99983.28;;;4.74;100.00
38812;BME280;24553;51.640;-0.752;2022-11-25T03:12:01;99979.19;;;4.71;100.00
38812;BME280;24553;51.640;-0.752;2022-11-25T03:14:44;99977.69;;;4.77;100.00
38812;BME280;24553;51.640;-0.752;2022-11-25T03:17:10;99977.34;;;4.80;100.00
38812;BME280;24553;51.640;-0.752;2022-11-25T03:19:35;99979.16;;;4.79;100.00
38812;BME280;24553;51.640;-0.752;2022-11-25T03:22:01;99978.69;;;4.84;100.00
38812;BME280;24553;51.640;-0.752;2022-11-25T03:24:26;99978.00;;;4.90;100.00
38812;BME280;24553;51.640;-0.752;2022-11-25T03:26:52;99973.09;;;4.87;100.00
38812;BME280;24553;51.640;-0.752;2022-11-25T03:29:17;99979.66;;;4.91;100.00
38812;BME280;24553;51.640;-0.752;2022-11-25T03:31:43;99986.88;;;4.97;100.00
38812;BME280;24553;51.640;-0.752;2022-11-25T03:34:08;99999.66;;;5.00;100.00
38812;BME280;24553;51.640;-0.752;2022-11-25T03:36:34;100007.25;;;5.03;100.00
38812;BME280;24553;51.640;-0.752;2022-11-25T03:38:59;100009.50;;;5.23;100.00
38812;BME280;24553;51.640;-0.752;2022-11-25T03:41:24;100014.09;;;5.21;100.00
38812;BME280;24553;51.640;-0.752;2022-11-25T03:43:50;100020.81;;;5.23;100.00
38812;BME280;24553;51.640;-0.752;2022-11-25T03:46:15;100035.44;;;5.26;100.00
38812;BME280;24553;51.640;-0.752;2022-11-25T03:48:40;100024.75;;;5.36;100.00
38812;BME280;24553;51.640;-0.752;2022-11-25T03:51:06;100027.09;;;5.70;100.00
38812;BME280;24553;51.640;-0.752;2022-11-25T03:53:31;100028.25;;;5.67;100.00
38812;BME280;24553;51.640;-0.752;2022-11-25T03:55:56;100030.91;;;5.59;100.00
38812;BME280;24553;51.640;-0.752;2022-11-25T03:58:22;100034.06;;;5.46;100.00
38812;BME280;24553;51.640;-0.752;2022-11-25T04:00:47;100043.16;;;5.36;100.00
38812;BME280;24553;51.640;-0.752;2022-11-25T04:03:12;100038.03;;;5.34;100.00
38812;BME280;24553;51.640;-0.752;2022-11-25T04:05:38;100048.75;;;5.24;100.00
38812;BME280;24553;51.640;-0.752;2022-11-25T04:08:03;100050.59;;;4.99;100.00
38812;BME280;24553;51.640;-0.752;2022-11-25T04:10:29;100045.50;;;4.90;100.00
38812;BME280;24553;51.640;-0.752;2022-11-25T04:12:54;100045.31;;;4.67;100.00
38812;BME280;24553;51.640;-0.752;2022-11-25T04:15:20;100048.13;;;4.57;100.00
38812;BME280;24553;51.640;-0.752;2022-11-25T04:17:45;100049.25;;;4.46;100.00
38812;BME280;24553;51.640;-0.752;2022-11-25T04:20:12;100052.19;;;4.51;100.00
38812;BME280;24553;51.640;-0.752;2022-11-25T04:22:38;100055.34;;;4.47;100.00
38812;BME280;24553;51.640;-0.752;2022-11-25T04:25:03;100063.22;;;4.47;100.00
38812;BME280;24553;51.640;-0.752;2022-11-25T04:27:29;100068.59;;;4.45;100.00
38812;BME280;24553;51.640;-0.752;2022-11-25T04:29:54;100073.88;;;4.62;100.00
38812;BME280;24553;51.640;-0.752;2022-11-25T04:32:20;100082.41;;;4.64;100.00
38812;BME280;24553;51.640;-0.752;2022-11-25T04:34:45;100079.97;;;4.62;100.00
38812;BME280;24553;51.640;-0.752;2022-11-25T04:37:10;100092.25;;;4.70;100.00
38812;BME280;24553;51.640;-0.752;2022-11-25T04:39:36;100101.81;;;4.71;100.00
38812;BME280;24553;51.640;-0.752;2022-11-25T04:42:01;100101.81;;;4.71;100.00
38812;BME280;24553;51.640;-0.752;2022-11-25T04:45:11;100113.63;;;4.75;100.00
38812;BME280;24553;51.640;-0.752;2022-11-25T04:47:37;100122.81;;;4.87;100.00
38812;BME280;24553;51.640;-0.752;2022-11-25T04:50:08;100129.75;;;4.88;100.00
38812;BME280;24553;51.640;-0.752;2022-11-25T04:52:34;100137.28;;;4.91;100.00
38812;BME280;24553;51.640;-0.752;2022-11-25T04:54:59;100130.06;;;4.93;100.00
38812;BME280;24553;51.640;-0.752;2022-11-25T04:57:25;100143.69;;;4.89;100.00
38812;BME280;24553;51.640;-0.752;2022-11-25T04:59:50;100147.78;;;4.83;100.00
38812;BME280;24553;51.640;-0.752;2022-11-25T05:02:22;100152.72;;;4.86;100.00
38812;BME280;24553;51.640;-0.752;2022-11-25T05:04:49;100160.94;;;4.83;100.00
38812;BME280;24553;51.640;-0.752;2022-11-25T05:07:17;100168.28;;;4.79;100.00
38812;BME280;24553;51.640;-0.752;2022-11-25T05:09:43;100167.47;;;4.79;100.00
38812;BME280;24553;51.640;-0.752;2022-11-25T05:12:11;100175.38;;;4.87;100.00
38812;BME280;24553;51.640;-0.752;2022-11-25T05:14:37;100182.25;;;4.80;100.00
38812;BME280;24553;51.640;-0.752;2022-11-25T05:17:03;100179.94;;;4.69;100.00
38812;BME280;24553;51.640;-0.752;2022-11-25T05:19:29;100183.69;;;4.58;100.00
38812;BME280;24553;51.640;-0.752;2022-11-25T05:21:54;100178.53;;;4.48;100.00
38812;BME280;24553;51.640;-0.752;2022-11-25T05:24:20;100191.66;;;4.40;100.00
38812;BME280;24553;51.640;-0.752;2022-11-25T05:26:45;100187.66;;;4.28;100.00
38812;BME280;24553;51.640;-0.752;2022-11-25T05:29:11;100191.16;;;4.10;100.00
38812;BME280;24553;51.640;-0.752;2022-11-25T05:31:36;100195.88;;;3.99;100.00
38812;BME280;24553;51.640;-0.752;2022-11-25T05:34:02;100201.25;;;3.97;100.00
38812;BME280;24553;51.640;-0.752;2022-11-25T05:36:28;100205.34;;;3.91;100.00
38812;BME280;24553;51.640;-0.752;2022-11-25T05:38:55;100214.88;;;3.92;100.00
38812;BME280;24553;51.640;-0.752;2022-11-25T05:41:21;100214.44;;;3.79;100.00
38812;BME280;24553;51.640;-0.752;2022-11-25T05:43:47;100226.13;;;3.85;100.00
38812;BME280;24553;51.640;-0.752;2022-11-25T05:46:12;100238.00;;;3.97;100.00
38812;BME280;24553;51.640;-0.752;2022-11-25T05:48:37;100232.25;;;3.93;100.00
38812;BME280;24553;51.640;-0.752;2022-11-25T05:51:03;100244.78;;;4.34;100.00
38812;BME280;24553;51.640;-0.752;2022-11-25T05:53:29;100256.53;;;4.56;100.00
38812;BME280;24553;51.640;-0.752;2022-11-25T05:56:00;100250.22;;;4.41;100.00
38812;BME280;24553;51.640;-0.752;2022-11-25T05:58:28;100262.50;;;4.32;100.00
38812;BME280;24553;51.640;-0.752;2022-11-25T06:00:54;100264.50;;;4.46;100.00
38812;BME280;24553;51.640;-0.752;2022-11-25T06:03:26;100275.88;;;4.47;100.00
38812;BME280;24553;51.640;-0.752;2022-11-25T06:05:51;100285.94;;;4.59;100.00
38812;BME280;24553;51.640;-0.752;2022-11-25T06:08:17;100287.19;;;4.47;100.00
38812;BME280;24553;51.640;-0.752;2022-11-25T06:10:42;100291.47;;;4.56;100.00
38812;BME280;24553;51.640;-0.752;2022-11-25T06:13:08;100293.31;;;4.64;100.00
38812;BME280;24553;51.640;-0.752;2022-11-25T06:15:34;100294.81;;;4.67;100.00
38812;BME280;24553;51.640;-0.752;2022-11-25T06:18:04;100308.53;;;4.52;100.00
38812;BME280;24553;51.640;-0.752;2022-11-25T06:20:29;100308.53;;;4.52;100.00
38812;BME280;24553;51.640;-0.752;2022-11-25T06:22:56;100321.25;;;4.65;100.00
38812;BME280;24553;51.640;-0.752;2022-11-25T06:25:22;100328.75;;;4.86;100.00
38812;BME280;24553;51.640;-0.752;2022-11-25T06:27:48;100345.19;;;4.88;100.00
38812;BME280;24553;51.640;-0.752;2022-11-25T06:30:14;100360.84;;;4.72;100.00
38812;BME280;24553;51.640;-0.752;2022-11-25T06:32:39;100362.34;;;4.48;100.00
38812;BME280;24553;51.640;-0.752;2022-11-25T06:35:05;100372.44;;;4.61;100.00
38812;BME280;24553;51.640;-0.752;2022-11-25T06:37:31;100377.69;;;4.61;100.00
38812;BME280;24553;51.640;-0.752;2022-11-25T06:39:57;100384.00;;;4.50;100.00
38812;BME280;24553;51.640;-0.752;2022-11-25T06:42:22;100390.66;;;4.36;100.00
38812;BME280;24553;51.640;-0.752;2022-11-25T06:44:48;100386.44;;;4.26;100.00
38812;BME280;24553;51.640;-0.752;2022-11-25T06:47:13;100386.19;;;4.11;100.00
38812;BME280;24553;51.640;-0.752;2022-11-25T06:49:38;100400.81;;;4.13;100.00
38812;BME280;24553;51.640;-0.752;2022-11-25T06:52:04;100406.38;;;4.54;100.00
38812;BME280;24553;51.640;-0.752;2022-11-25T06:54:29;100407.56;;;4.60;100.00
38812;BME280;24553;51.640;-0.752;2022-11-25T06:56:55;100414.66;;;4.42;100.00
38812;BME280;24553;51.640;-0.752;2022-11-25T06:59:20;100425.81;;;4.26;100.00
38812;BME280;24553;51.640;-0.752;2022-11-25T07:01:46;100431.81;;;4.18;100.00
38812;BME280;24553;51.640;-0.752;2022-11-25T07:04:11;100433.19;;;4.04;100.00
38812;BME280;24553;51.640;-0.752;2022-11-25T07:06:37;100438.00;;;4.27;100.00
38812;BME280;24553;51.640;-0.752;2022-11-25T07:09:02;100448.84;;;4.32;100.00
38812;BME280;24553;51.640;-0.752;2022-11-25T07:11:31;100460.69;;;4.18;100.00
38812;BME280;24553;51.640;-0.752;2022-11-25T07:14:00;100465.44;;;4.14;100.00
38812;BME280;24553;51.640;-0.752;2022-11-25T07:16:27;100462.88;;;4.23;100.00
38812;BME280;24553;51.640;-0.752;2022-11-25T07:18:53;100478.31;;;4.08;100.00
38812;BME280;24553;51.640;-0.752;2022-11-25T07:21:21;100483.91;;;3.77;100.00
38812;BME280;24553;51.640;-0.752;2022-11-25T07:23:47;100471.00;;;3.56;100.00
38812;BME280;24553;51.640;-0.752;2022-11-25T07:26:21;100486.13;;;3.44;100.00
38812;BME280;24553;51.640;-0.752;2022-11-25T07:28:48;100488.28;;;3.21;100.00
38812;BME280;24553;51.640;-0.752;2022-11-25T07:33:42;100495.47;;;3.10;100.00
38812;BME280;24553;51.640;-0.752;2022-11-25T07:36:09;100508.16;;;3.04;100.00
38812;BME280;24553;51.640;-0.752;2022-11-25T07:38:36;100517.28;;;3.00;100.00
38812;BME280;24553;51.640;-0.752;2022-11-25T07:41:10;100516.88;;;3.05;100.00
38812;BME280;24553;51.640;-0.752;2022-11-25T07:43:36;100525.84;;;3.02;100.00
38812;BME280;24553;51.640;-0.752;2022-11-25T07:46:14;100538.78;;;2.94;100.00
38812;BME280;24553;51.640;-0.752;2022-11-25T07:48:40;100551.50;;;2.79;100.00
38812;BME280;24553;51.640;-0.752;2022-11-25T07:51:22;100565.16;;;2.83;100.00
38812;BME280;24553;51.640;-0.752;2022-11-25T07:53:49;100579.88;;;2.94;100.00
38812;BME280;24553;51.640;-0.752;2022-11-25T07:56:15;100587.19;;;2.90;100.00
38812;BME280;24553;51.640;-0.752;2022-11-25T07:58:41;100581.00;;;2.81;100.00
38812;BME280;24553;51.640;-0.752;2022-11-25T08:01:09;100592.31;;;2.82;100.00
38812;BME280;24553;51.640;-0.752;2022-11-25T08:03:36;100596.72;;;2.72;100.00
38812;BME280;24553;51.640;-0.752;2022-11-25T08:06:07;100610.63;;;2.62;100.00
38812;BME280;24553;51.640;-0.752;2022-11-25T08:08:33;100611.16;;;2.47;100.00
38812;BME280;24553;51.640;-0.752;2022-11-25T08:10:59;100618.69;;;2.40;100.00
38812;BME280;24553;51.640;-0.752;2022-11-25T08:13:25;100632.75;;;2.39;100.00
38812;BME280;24553;51.640;-0.752;2022-11-25T08:15:50;100633.72;;;2.48;100.00
38812;BME280;24553;51.640;-0.752;2022-11-25T08:18:16;100638.28;;;2.46;100.00
38812;BME280;24553;51.640;-0.752;2022-11-25T08:20:42;100637.88;;;2.40;100.00
38812;BME280;24553;51.640;-0.752;2022-11-25T08:23:07;100652.75;;;2.50;100.00
38812;BME280;24553;51.640;-0.752;2022-11-25T08:25:38;100663.66;;;2.65;100.00
38812;BME280;24553;51.640;-0.752;2022-11-25T08:28:04;100666.97;;;2.57;100.00
38812;BME280;24553;51.640;-0.752;2022-11-25T08:30:29;100674.38;;;2.52;100.00
38812;BME280;24553;51.640;-0.752;2022-11-25T08:32:55;100678.41;;;2.56;100.00
38812;BME280;24553;51.640;-0.752;2022-11-25T08:35:22;100678.41;;;2.56;100.00
38812;BME280;24553;51.640;-0.752;2022-11-25T08:37:47;100682.66;;;2.57;100.00
38812;BME280;24553;51.640;-0.752;2022-11-25T08:40:13;100690.41;;;2.58;100.00
38812;BME280;24553;51.640;-0.752;2022-11-25T08:42:38;100703.91;;;2.64;100.00
38812;BME280;24553;51.640;-0.752;2022-11-25T08:45:04;100717.69;;;2.56;100.00
38812;BME280;24553;51.640;-0.752;2022-11-25T08:47:30;100718.47;;;2.47;100.00
38812;BME280;24553;51.640;-0.752;2022-11-25T08:49:55;100731.13;;;2.42;100.00
38812;BME280;24553;51.640;-0.752;2022-11-25T08:52:21;100733.72;;;2.42;100.00
38812;BME280;24553;51.640;-0.752;2022-11-25T08:54:47;100742.72;;;2.49;100.00
38812;BME280;24553;51.640;-0.752;2022-11-25T08:57:13;100748.00;;;2.58;100.00
38812;BME280;24553;51.640;-0.752;2022-11-25T08:59:38;100750.63;;;2.58;100.00
38812;BME280;24553;51.640;-0.752;2022-11-25T09:02:05;100754.16;;;2.57;100.00
38812;BME280;24553;51.640;-0.752;2022-11-25T09:04:30;100754.75;;;2.71;100.00
38812;BME280;24553;51.640;-0.752;2022-11-25T09:06:56;100764.22;;;2.93;100.00
38812;BME280;24553;51.640;-0.752;2022-11-25T09:09:21;100766.03;;;3.12;100.00
38812;BME280;24553;51.640;-0.752;2022-11-25T09:11:47;100783.00;;;3.27;100.00
38812;BME280;24553;51.640;-0.752;2022-11-25T09:14:12;100789.13;;;3.47;100.00
38812;BME280;24553;51.640;-0.752;2022-11-25T09:16:38;100794.78;;;3.52;100.00
38812;BME280;24553;51.640;-0.752;2022-11-25T09:19:03;100804.16;;;3.64;100.00
38812;BME280;24553;51.640;-0.752;2022-11-25T09:21:29;100803.72;;;3.79;100.00
38812;BME280;24553;51.640;-0.752;2022-11-25T09:23:54;100807.75;;;3.92;100.00
38812;BME280;24553;51.640;-0.752;2022-11-25T09:26:22;100820.13;;;4.10;100.00
38812;BME280;24553;51.640;-0.752;2022-11-25T09:28:48;100820.81;;;4.22;100.00
38812;BME280;24553;51.640;-0.752;2022-11-25T09:31:14;100822.84;;;4.37;100.00
38812;BME280;24553;51.640;-0.752;2022-11-25T09:33:39;100832.75;;;4.44;100.00
38812;BME280;24553;51.640;-0.752;2022-11-25T09:36:05;100842.66;;;4.69;100.00
38812;BME280;24553;51.640;-0.752;2022-11-25T09:38:30;100845.03;;;4.90;100.00
38812;BME280;24553;51.640;-0.752;2022-11-25T09:41:01;100851.47;;;5.06;100.00
38812;BME280;24553;51.640;-0.752;2022-11-25T09:46:38;100851.09;;;5.28;100.00
38812;BME280;24553;51.640;-0.752;2022-11-25T09:52:14;100862.09;;;5.59;100.00
38812;BME280;24553;51.640;-0.752;2022-11-25T09:57:42;100895.56;;;5.85;100.00
38812;BME280;24553;51.640;-0.752;2022-11-25T10:00:14;100899.50;;;5.99;100.00
38812;BME280;24553;51.640;-0.752;2022-11-25T10:02:42;100900.03;;;6.02;100.00
38812;BME280;24553;51.640;-0.752;2022-11-25T10:05:33;100906.81;;;6.23;100.00
38812;BME280;24553;51.640;-0.752;2022-11-25T10:08:11;100909.94;;;6.26;100.00
38812;BME280;24553;51.640;-0.752;2022-11-25T10:10:46;100920.78;;;6.41;100.00
38812;BME280;24553;51.640;-0.752;2022-11-25T10:13:47;100912.59;;;6.52;100.00
38812;BME280;24553;51.640;-0.752;2022-11-25T10:19:12;100913.94;;;6.74;100.00
38812;BME280;24553;51.640;-0.752;2022-11-25T10:21:39;100903.56;;;6.81;100.00
38812;BME280;24553;51.640;-0.752;2022-11-25T10:24:08;100897.88;;;6.94;100.00
38812;BME280;24553;51.640;-0.752;2022-11-25T10:26:41;100894.31;;;7.03;100.00
38812;BME280;24553;51.640;-0.752;2022-11-25T10:31:40;100888.78;;;7.22;100.00
38812;BME280;24553;51.640;-0.752;2022-11-25T10:34:34;100886.53;;;7.36;100.00
38812;BME280;24553;51.640;-0.752;2022-11-25T10:36:58;100884.59;;;7.46;100.00
38812;BME280;24553;51.640;-0.752;2022-11-25T10:39:25;100882.78;;;7.55;100.00
38812;BME280;24553;51.640;-0.752;2022-11-25T10:42:01;100894.50;;;7.69;100.00
38812;BME280;24553;51.640;-0.752;2022-11-25T10:44:38;100898.16;;;7.76;100.00
38812;BME280;24553;51.640;-0.752;2022-11-25T10:52:56;100899.69;;;8.11;100.00
38812;BME280;24553;51.640;-0.752;2022-11-25T10:55:25;100896.25;;;8.19;100.00
38812;BME280;24553;51.640;-0.752;2022-11-25T10:57:54;100901.34;;;8.28;100.00
38812;BME280;24553;51.640;-0.752;2022-11-25T11:02:56;100905.50;;;8.47;100.00
38812;BME280;24553;51.640;-0.752;2022-11-25T11:08:27;100894.56;;;8.67;100.00
38812;BME280;24553;51.640;-0.752;2022-11-25T11:13:33;100891.72;;;8.77;100.00
38812;BME280;24553;51.640;-0.752;2022-11-25T11:15:58;100885.59;;;8.84;100.00
38812;BME280;24553;51.640;-0.752;2022-11-25T11:20:54;100877.13;;;8.97;100.00
38812;BME280;24553;51.640;-0.752;2022-11-25T11:23:20;100867.22;;;8.99;100.00
38812;BME280;24553;51.640;-0.752;2022-11-25T11:25:59;100861.31;;;9.20;100.00
38812;BME280;24553;51.640;-0.752;2022-11-25T11:30:59;100844.13;;;9.24;100.00
38812;BME280;24553;51.640;-0.752;2022-11-25T11:36:07;100837.78;;;9.33;100.00
38812;BME280;24553;51.640;-0.752;2022-11-25T11:38:38;100834.41;;;9.39;100.00
38812;BME280;24553;51.640;-0.752;2022-11-25T11:41:38;100826.69;;;9.38;100.00
38812;BME280;24553;51.640;-0.752;2022-11-25T11:49:53;100849.44;;;9.47;100.00
38812;BME280;24553;51.640;-0.752;2022-11-25T11:52:43;100855.00;;;9.60;100.00
38812;BME280;24553;51.640;-0.752;2022-11-25T12:00:25;100871.50;;;9.63;100.00
38812;BME280;24553;51.640;-0.752;2022-11-25T12:03:01;100877.66;;;9.63;100.00
38812;BME280;24553;51.640;-0.752;2022-11-25T12:05:33;100881.34;;;9.77;100.00
38812;BME280;24553;51.640;-0.752;2022-11-25T12:10:31;100897.38;;;9.83;100.00
38812;BME280;24553;51.640;-0.752;2022-11-25T12:21:01;100910.00;;;10.19;100.00
38812;BME280;24553;51.640;-0.752;2022-11-25T12:23:49;100915.59;;;10.24;100.00
38812;BME280;24553;51.640;-0.752;2022-11-25T12:29:32;100929.59;;;10.41;100.00
38812;BME280;24553;51.640;-0.752;2022-11-25T12:37:38;100938.50;;;10.63;100.00
38812;BME280;24553;51.640;-0.752;2022-11-25T12:40:15;100945.00;;;10.76;100.00
38812;BME280;24553;51.640;-0.752;2022-11-25T12:42:43;100939.25;;;10.72;100.00
38812;BME280;24553;51.640;-0.752;2022-11-25T12:45:23;100944.00;;;10.62;100.00
38812;BME280;24553;51.640;-0.752;2022-11-25T12:47:49;100942.03;;;10.56;100.00
38812;BME280;24553;51.640;-0.752;2022-11-25T12:50:59;100936.00;;;10.47;100.00
38812;BME280;24553;51.640;-0.752;2022-11-25T12:55:52;100936.44;;;10.51;100.00
38812;BME280;24553;51.640;-0.752;2022-11-25T13:01:24;100948.53;;;10.53;100.00
38812;BME280;24553;51.640;-0.752;2022-11-25T13:04:18;100948.53;;;10.53;100.00
38812;BME280;24553;51.640;-0.752;2022-11-25T13:17:44;100965.22;;;10.62;100.00
38812;BME280;24553;51.640;-0.752;2022-11-25T13:23:22;100975.28;;;10.81;100.00
38812;BME280;24553;51.640;-0.752;2022-11-25T13:25:48;100976.84;;;10.76;100.00
38812;BME280;24553;51.640;-0.752;2022-11-25T13:28:36;100988.91;;;10.78;100.00
38812;BME280;24553;51.640;-0.752;2022-11-25T13:31:18;100988.47;;;10.75;100.00
38812;BME280;24553;51.640;-0.752;2022-11-25T13:36:21;100997.41;;;10.74;100.00
38812;BME280;24553;51.640;-0.752;2022-11-25T13:44:03;101005.72;;;10.70;100.00
38812;BME280;24553;51.640;-0.752;2022-11-25T13:46:42;101007.41;;;10.72;100.00
38812;BME280;24553;51.640;-0.752;2022-11-25T13:49:51;101010.22;;;10.70;100.00
38812;BME280;24553;51.640;-0.752;2022-11-25T13:52:35;101023.63;;;10.68;100.00
38812;BME280;24553;51.640;-0.752;2022-11-25T13:55:08;101027.31;;;10.67;100.00
38812;BME280;24553;51.640;-0.752;2022-11-25T13:57:36;101034.59;;;10.65;100.00
38812;BME280;24553;51.640;-0.752;2022-11-25T14:02:52;101047.94;;;10.57;100.00
38812;BME280;24553;51.640;-0.752;2022-11-25T14:19:34;101076.25;;;10.34;100.00
38812;BME280;24553;51.640;-0.752;2022-11-25T14:25:21;101075.25;;;10.35;100.00
38812;BME280;24553;51.640;-0.752;2022-11-25T14:27:50;101062.84;;;10.27;100.00
38812;BME280;24553;51.640;-0.752;2022-11-25T14:30:17;101069.00;;;10.19;100.00
38812;BME280;24553;51.640;-0.752;2022-11-25T14:32:54;101066.84;;;10.23;100.00
38812;BME280;24553;51.640;-0.752;2022-11-25T14:35:29;101075.25;;;10.35;100.00
38812;BME280;24553;51.640;-0.752;2022-11-25T14:38:10;101079.44;;;10.21;100.00
38812;BME280;24553;51.640;-0.752;2022-11-25T14:40:43;101079.44;;;10.21;100.00
38812;BME280;24553;51.640;-0.752;2022-11-25T14:43:25;101069.66;;;10.21;100.00
38812;BME280;24553;51.640;-0.752;2022-11-25T14:46:15;101084.97;;;10.11;100.00
38812;BME280;24553;51.640;-0.752;2022-11-25T14:48:42;101084.66;;;10.06;100.00